Custer, KY (40115)

2:31 AM CST on January 29, 2015 (GMT -0600)
Eveleigh Road | Change Station
CLOSE
Current Station
Personal Weather Station
Location: Leitchfield, KY
Elevation: 670 ft
Nearby Weather Stations

Elev 670 ft 37.58 °N, 86.34 °W | Updated 1 second ago

Overcast
Overcast
43.5 °F
Feels Like 40 °F
N
6.0
Wind Variable Wind from South
Gusts 10.7 mph

Today
High -- | Low -- °F
--% Chance of Precip.
Yesterday
High -- | Low -- °F
Precip. -- in
6:51 AM 5:05 PM
Waxing Gibbous, 72% visible
Pressure 30.04 in
Visibility 10.0 miles
Clouds Mostly Cloudy 8000 ft
Overcast 22000 ft
Windchill 40 °F
Dew Point 30 °F
Humidity 58%
Rainfall 0.00 in
Snow Depth Not available.
UV 0 out of 12
Pollen .30 out of 12
Air Quality Not available.
Flu Activity Not available.
METAR KFTK 290758Z AUTO 16013KT 10SM BKN080 OVC220 04/M05 A3001 RMK AO2 SLP170 T00421055

More Conditions Fewer Conditions

Pressure 30.04 in
Visibility 10.0 miles
Clouds Mostly Cloudy 8000 ft
Overcast 22000 ft
Windchill 40 °F
Dew Point 30 °F
Humidity 58%
Rainfall 0.00 in
Snow Depth Not available.
UV 0 out of 12
Pollen .30 out of 12
Air Quality Not available.
Flu Activity Not available.
METAR KFTK 290758Z AUTO 16013KT 10SM BKN080 OVC220 04/M05 A3001 RMK AO2 SLP170 T00421055

More Conditions Fewer Conditions

10-Day Weather Forecast

Almanac

Astronomy

Jan. 29, 2015 Rise Set
Actual Time
Civil Twilight
Nautical Twilight
Astronomical Twilight
Moon
Length of Visible Light
Length of Day
Tomorrow will be .
, % of the Moon is Illuminated

Today's Extremes

State Highs State Lows

Community

WunderPhotos

Upload Photos

1,791,389 photos uploaded!

WunderBlogs® & News

Nearby

Air Quality

  Air Quality AQ Index Pollutant
Not available.

Snow Depth

Station Depth Elevation

Earthquake Activity

City Distance Mag. Time & Date
Minimum magnitude displayed is 2.5.

Coastal Water Temperatures

Place Temperature

Nearby Weather Stations